sensor_id;sensor_type;location;lat;lon;timestamp;temperature;humidity
24408;DHT22;12542;50.924;4.516;2023-12-07T00:01:37;3.70;99.90
24408;DHT22;12542;50.924;4.516;2023-12-07T00:04:03;4.00;99.90
24408;DHT22;12542;50.924;4.516;2023-12-07T00:06:31;3.90;99.90
24408;DHT22;12542;50.924;4.516;2023-12-07T00:08:57;3.80;99.90
24408;DHT22;12542;50.924;4.516;2023-12-07T00:11:24;3.90;99.90
24408;DHT22;12542;50.924;4.516;2023-12-07T00:13:49;3.80;99.90
24408;DHT22;12542;50.924;4.516;2023-12-07T00:16:15;3.60;99.90
24408;DHT22;12542;50.924;4.516;2023-12-07T00:18:41;3.50;99.90
24408;DHT22;12542;50.924;4.516;2023-12-07T00:21:09;3.40;99.90
24408;DHT22;12542;50.924;4.516;2023-12-07T00:23:35;3.30;99.90
24408;DHT22;12542;50.924;4.516;2023-12-07T00:26:04;3.30;99.90
24408;DHT22;12542;50.924;4.516;2023-12-07T00:28:30;3.10;99.90
24408;DHT22;12542;50.924;4.516;2023-12-07T00:30:56;3.20;99.90
24408;DHT22;12542;50.924;4.516;2023-12-07T00:33:22;3.50;99.90
24408;DHT22;12542;50.924;4.516;2023-12-07T00:35:48;3.80;99.90
24408;DHT22;12542;50.924;4.516;2023-12-07T00:38:14;3.90;99.90
24408;DHT22;12542;50.924;4.516;2023-12-07T00:40:42;3.90;99.90
24408;DHT22;12542;50.924;4.516;2023-12-07T00:43:07;3.80;99.90
24408;DHT22;12542;50.924;4.516;2023-12-07T00:45:33;3.50;99.90
24408;DHT22;12542;50.924;4.516;2023-12-07T00:48:02;3.50;99.90
24408;DHT22;12542;50.924;4.516;2023-12-07T00:50:27;3.50;99.90
24408;DHT22;12542;50.924;4.516;2023-12-07T00:52:53;3.30;99.90
24408;DHT22;12542;50.924;4.516;2023-12-07T00:55:19;3.20;99.90
24408;DHT22;12542;50.924;4.516;2023-12-07T00:57:45;3.20;99.90
24408;DHT22;12542;50.924;4.516;2023-12-07T01:00:10;3.20;99.90
24408;DHT22;12542;50.924;4.516;2023-12-07T01:02:36;3.30;99.90
24408;DHT22;12542;50.924;4.516;2023-12-07T01:05:02;3.30;99.90
24408;DHT22;12542;50.924;4.516;2023-12-07T01:07:28;3.60;99.90
24408;DHT22;12542;50.924;4.516;2023-12-07T01:09:54;3.70;99.90
24408;DHT22;12542;50.924;4.516;2023-12-07T01:12:19;3.70;99.90
24408;DHT22;12542;50.924;4.516;2023-12-07T01:14:45;3.70;99.90
24408;DHT22;12542;50.924;4.516;2023-12-07T01:17:13;3.70;99.90
24408;DHT22;12542;50.924;4.516;2023-12-07T01:19:39;3.70;99.90
24408;DHT22;12542;50.924;4.516;2023-12-07T01:22:04;3.50;99.90
24408;DHT22;12542;50.924;4.516;2023-12-07T01:24:30;3.30;99.90
24408;DHT22;12542;50.924;4.516;2023-12-07T01:26:56;3.10;99.90
24408;DHT22;12542;50.924;4.516;2023-12-07T01:29:22;3.10;99.90
24408;DHT22;12542;50.924;4.516;2023-12-07T01:31:47;3.00;99.90
24408;DHT22;12542;50.924;4.516;2023-12-07T01:34:14;3.10;99.90
24408;DHT22;12542;50.924;4.516;2023-12-07T01:36:40;3.10;99.90
24408;DHT22;12542;50.924;4.516;2023-12-07T01:39:05;3.10;99.90
24408;DHT22;12542;50.924;4.516;2023-12-07T01:41:32;3.10;99.90
24408;DHT22;12542;50.924;4.516;2023-12-07T01:43:57;3.20;99.90
24408;DHT22;12542;50.924;4.516;2023-12-07T01:46:23;3.30;99.90
24408;DHT22;12542;50.924;4.516;2023-12-07T01:48:49;3.40;99.90
24408;DHT22;12542;50.924;4.516;2023-12-07T01:51:16;3.40;99.90
24408;DHT22;12542;50.924;4.516;2023-12-07T01:53:42;3.20;99.90
24408;DHT22;12542;50.924;4.516;2023-12-07T01:56:09;3.10;99.90
24408;DHT22;12542;50.924;4.516;2023-12-07T01:58:36;3.20;99.90
24408;DHT22;12542;50.924;4.516;2023-12-07T02:01:02;3.30;99.90
24408;DHT22;12542;50.924;4.516;2023-12-07T02:03:30;3.30;99.90
24408;DHT22;12542;50.924;4.516;2023-12-07T02:05:57;3.30;99.90
24408;DHT22;12542;50.924;4.516;2023-12-07T02:08:23;3.30;99.90
24408;DHT22;12542;50.924;4.516;2023-12-07T02:10:49;3.30;99.90
24408;DHT22;12542;50.924;4.516;2023-12-07T02:13:15;3.40;99.90
24408;DHT22;12542;50.924;4.516;2023-12-07T02:15:40;3.30;99.90
24408;DHT22;12542;50.924;4.516;2023-12-07T02:18:14;3.30;99.90
24408;DHT22;12542;50.924;4.516;2023-12-07T02:20:55;3.30;99.90
24408;DHT22;12542;50.924;4.516;2023-12-07T02:23:23;3.20;99.90
24408;DHT22;12542;50.924;4.516;2023-12-07T02:25:54;3.10;99.90
24408;DHT22;12542;50.924;4.516;2023-12-07T02:28:20;3.10;99.90
24408;DHT22;12542;50.924;4.516;2023-12-07T02:30:45;3.00;99.90
24408;DHT22;12542;50.924;4.516;2023-12-07T02:33:12;2.90;99.90
24408;DHT22;12542;50.924;4.516;2023-12-07T02:35:38;2.90;99.90
24408;DHT22;12542;50.924;4.516;2023-12-07T02:38:08;3.00;99.90
24408;DHT22;12542;50.924;4.516;2023-12-07T02:40:34;3.10;99.90
24408;DHT22;12542;50.924;4.516;2023-12-07T02:43:01;3.10;99.90
24408;DHT22;12542;50.924;4.516;2023-12-07T02:45:27;3.10;99.90
24408;DHT22;12542;50.924;4.516;2023-12-07T02:47:53;3.10;99.90
24408;DHT22;12542;50.924;4.516;2023-12-07T02:50:19;3.20;99.90
24408;DHT22;12542;50.924;4.516;2023-12-07T02:52:45;3.20;99.90
24408;DHT22;12542;50.924;4.516;2023-12-07T02:55:11;3.10;99.90
24408;DHT22;12542;50.924;4.516;2023-12-07T02:57:39;3.20;99.90
24408;DHT22;12542;50.924;4.516;2023-12-07T03:00:06;3.40;99.90
24408;DHT22;12542;50.924;4.516;2023-12-07T03:02:36;3.30;99.90
24408;DHT22;12542;50.924;4.516;2023-12-07T03:05:03;3.40;99.90
24408;DHT22;12542;50.924;4.516;2023-12-07T03:07:30;3.30;99.90
24408;DHT22;12542;50.924;4.516;2023-12-07T03:09:56;3.30;99.90
24408;DHT22;12542;50.924;4.516;2023-12-07T03:12:22;3.30;99.90
24408;DHT22;12542;50.924;4.516;2023-12-07T03:14:49;3.40;99.90
24408;DHT22;12542;50.924;4.516;2023-12-07T03:17:14;3.30;99.90
24408;DHT22;12542;50.924;4.516;2023-12-07T03:19:40;3.40;99.90
24408;DHT22;12542;50.924;4.516;2023-12-07T03:22:09;3.40;99.90
24408;DHT22;12542;50.924;4.516;2023-12-07T03:24:36;3.50;99.90
24408;DHT22;12542;50.924;4.516;2023-12-07T03:27:02;3.50;99.90
24408;DHT22;12542;50.924;4.516;2023-12-07T03:29:27;3.60;99.90
24408;DHT22;12542;50.924;4.516;2023-12-07T03:31:53;3.60;99.90
24408;DHT22;12542;50.924;4.516;2023-12-07T03:34:19;3.70;99.90
24408;DHT22;12542;50.924;4.516;2023-12-07T03:36:48;3.80;99.90
24408;DHT22;12542;50.924;4.516;2023-12-07T03:39:14;3.80;99.90
24408;DHT22;12542;50.924;4.516;2023-12-07T03:41:41;3.80;99.90
24408;DHT22;12542;50.924;4.516;2023-12-07T03:44:07;3.60;99.90
24408;DHT22;12542;50.924;4.516;2023-12-07T03:46:33;3.70;99.90
24408;DHT22;12542;50.924;4.516;2023-12-07T03:48:58;3.60;99.90
24408;DHT22;12542;50.924;4.516;2023-12-07T03:51:26;3.60;99.90
24408;DHT22;12542;50.924;4.516;2023-12-07T03:53:52;3.60;99.90
24408;DHT22;12542;50.924;4.516;2023-12-07T03:56:24;3.70;99.90
24408;DHT22;12542;50.924;4.516;2023-12-07T03:58:50;3.70;99.90
24408;DHT22;12542;50.924;4.516;2023-12-07T04:01:16;3.60;99.90
24408;DHT22;12542;50.924;4.516;2023-12-07T04:03:42;3.60;99.90
24408;DHT22;12542;50.924;4.516;2023-12-07T04:06:07;3.60;99.90
24408;DHT22;12542;50.924;4.516;2023-12-07T04:08:34;3.70;99.90
24408;DHT22;12542;50.924;4.516;2023-12-07T04:11:00;3.70;99.90
24408;DHT22;12542;50.924;4.516;2023-12-07T04:13:26;3.80;99.90
24408;DHT22;12542;50.924;4.516;2023-12-07T04:15:51;3.80;99.90
24408;DHT22;12542;50.924;4.516;2023-12-07T04:18:17;3.80;99.90
24408;DHT22;12542;50.924;4.516;2023-12-07T04:20:43;3.80;99.90
24408;DHT22;12542;50.924;4.516;2023-12-07T04:23:09;3.90;99.90
24408;DHT22;12542;50.924;4.516;2023-12-07T04:25:34;3.90;99.90
24408;DHT22;12542;50.924;4.516;2023-12-07T04:28:00;4.00;99.90
24408;DHT22;12542;50.924;4.516;2023-12-07T04:30:25;4.20;99.90
24408;DHT22;12542;50.924;4.516;2023-12-07T04:32:51;4.20;99.90
24408;DHT22;12542;50.924;4.516;2023-12-07T04:35:17;3.90;99.90
24408;DHT22;12542;50.924;4.516;2023-12-07T04:37:42;3.90;99.90
24408;DHT22;12542;50.924;4.516;2023-12-07T04:40:11;3.70;99.90
24408;DHT22;12542;50.924;4.516;2023-12-07T04:42:37;3.80;99.90
24408;DHT22;12542;50.924;4.516;2023-12-07T04:45:03;3.90;99.90
24408;DHT22;12542;50.924;4.516;2023-12-07T04:47:28;3.80;99.90
24408;DHT22;12542;50.924;4.516;2023-12-07T04:49:55;3.90;99.90
24408;DHT22;12542;50.924;4.516;2023-12-07T04:52:20;4.00;99.90
24408;DHT22;12542;50.924;4.516;2023-12-07T04:54:46;3.70;99.90
24408;DHT22;12542;50.924;4.516;2023-12-07T04:57:12;3.50;99.90
24408;DHT22;12542;50.924;4.516;2023-12-07T04:59:37;3.40;99.90
24408;DHT22;12542;50.924;4.516;2023-12-07T05:02:03;3.40;99.90
24408;DHT22;12542;50.924;4.516;2023-12-07T05:04:29;3.50;99.90
24408;DHT22;12542;50.924;4.516;2023-12-07T05:06:54;3.60;99.90
24408;DHT22;12542;50.924;4.516;2023-12-07T05:09:22;3.60;99.90
24408;DHT22;12542;50.924;4.516;2023-12-07T05:11:48;3.70;99.90
24408;DHT22;12542;50.924;4.516;2023-12-07T05:14:14;3.70;99.90
24408;DHT22;12542;50.924;4.516;2023-12-07T05:16:40;3.60;99.90
24408;DHT22;12542;50.924;4.516;2023-12-07T05:19:06;3.60;99.90
24408;DHT22;12542;50.924;4.516;2023-12-07T05:21:34;3.50;99.90
24408;DHT22;12542;50.924;4.516;2023-12-07T05:24:01;3.40;99.90
24408;DHT22;12542;50.924;4.516;2023-12-07T05:26:26;3.40;99.90
24408;DHT22;12542;50.924;4.516;2023-12-07T05:28:52;3.30;99.90
24408;DHT22;12542;50.924;4.516;2023-12-07T05:31:18;3.20;99.90
24408;DHT22;12542;50.924;4.516;2023-12-07T05:33:44;3.20;99.90
24408;DHT22;12542;50.924;4.516;2023-12-07T05:36:10;3.30;99.90
24408;DHT22;12542;50.924;4.516;2023-12-07T05:38:35;3.40;99.90
24408;DHT22;12542;50.924;4.516;2023-12-07T05:41:01;3.60;99.90
24408;DHT22;12542;50.924;4.516;2023-12-07T05:43:27;3.50;99.90
24408;DHT22;12542;50.924;4.516;2023-12-07T05:45:52;3.40;99.90
24408;DHT22;12542;50.924;4.516;2023-12-07T05:48:18;3.40;99.90
24408;DHT22;12542;50.924;4.516;2023-12-07T05:50:44;3.40;99.90
24408;DHT22;12542;50.924;4.516;2023-12-07T05:53:09;3.30;99.90
24408;DHT22;12542;50.924;4.516;2023-12-07T05:55:36;3.30;99.90
24408;DHT22;12542;50.924;4.516;2023-12-07T05:58:01;3.30;99.90
24408;DHT22;12542;50.924;4.516;2023-12-07T06:00:29;3.30;99.90
24408;DHT22;12542;50.924;4.516;2023-12-07T06:02:55;3.40;99.90
24408;DHT22;12542;50.924;4.516;2023-12-07T06:05:20;3.40;99.90
24408;DHT22;12542;50.924;4.516;2023-12-07T06:07:46;3.50;99.90
24408;DHT22;12542;50.924;4.516;2023-12-07T06:10:12;3.60;99.90
24408;DHT22;12542;50.924;4.516;2023-12-07T06:12:38;3.60;99.90
24408;DHT22;12542;50.924;4.516;2023-12-07T06:15:07;3.60;99.90
24408;DHT22;12542;50.924;4.516;2023-12-07T06:17:33;3.70;99.90
24408;DHT22;12542;50.924;4.516;2023-12-07T06:19:59;3.70;99.90
24408;DHT22;12542;50.924;4.516;2023-12-07T06:22:25;3.70;99.90
24408;DHT22;12542;50.924;4.516;2023-12-07T06:24:50;3.60;99.90
24408;DHT22;12542;50.924;4.516;2023-12-07T06:27:16;3.60;99.90
24408;DHT22;12542;50.924;4.516;2023-12-07T06:29:43;3.50;99.90
24408;DHT22;12542;50.924;4.516;2023-12-07T06:32:09;3.60;99.90
24408;DHT22;12542;50.924;4.516;2023-12-07T06:34:40;3.60;99.90
24408;DHT22;12542;50.924;4.516;2023-12-07T06:37:06;3.70;99.90
24408;DHT22;12542;50.924;4.516;2023-12-07T06:39:31;3.80;99.90
24408;DHT22;12542;50.924;4.516;2023-12-07T06:41:57;3.90;99.90
24408;DHT22;12542;50.924;4.516;2023-12-07T06:44:23;3.90;99.90
24408;DHT22;12542;50.924;4.516;2023-12-07T06:46:48;4.10;99.90
24408;DHT22;12542;50.924;4.516;2023-12-07T06:49:14;4.10;99.90
24408;DHT22;12542;50.924;4.516;2023-12-07T06:51:40;4.10;99.90
24408;DHT22;12542;50.924;4.516;2023-12-07T06:54:08;4.10;99.90
24408;DHT22;12542;50.924;4.516;2023-12-07T06:56:34;4.10;99.90
24408;DHT22;12542;50.924;4.516;2023-12-07T06:59:00;4.00;99.90
24408;DHT22;12542;50.924;4.516;2023-12-07T07:01:26;3.80;99.90
24408;DHT22;12542;50.924;4.516;2023-12-07T07:03:51;3.80;99.90
24408;DHT22;12542;50.924;4.516;2023-12-07T07:06:17;3.90;99.90
24408;DHT22;12542;50.924;4.516;2023-12-07T07:08:43;4.00;99.90
24408;DHT22;12542;50.924;4.516;2023-12-07T07:11:14;3.90;99.90
24408;DHT22;12542;50.924;4.516;2023-12-07T07:13:41;3.80;99.90
24408;DHT22;12542;50.924;4.516;2023-12-07T07:16:07;3.60;99.90
24408;DHT22;12542;50.924;4.516;2023-12-07T07:18:33;3.50;99.90
24408;DHT22;12542;50.924;4.516;2023-12-07T07:21:01;3.40;99.90
24408;DHT22;12542;50.924;4.516;2023-12-07T07:23:29;3.50;99.90
24408;DHT22;12542;50.924;4.516;2023-12-07T07:25:55;3.60;99.90
24408;DHT22;12542;50.924;4.516;2023-12-07T07:28:20;3.50;99.90
24408;DHT22;12542;50.924;4.516;2023-12-07T07:30:46;3.40;99.90
24408;DHT22;12542;50.924;4.516;2023-12-07T07:33:12;3.60;99.90
24408;DHT22;12542;50.924;4.516;2023-12-07T07:35:38;3.80;99.90
24408;DHT22;12542;50.924;4.516;2023-12-07T07:38:04;3.80;99.90
24408;DHT22;12542;50.924;4.516;2023-12-07T07:40:29;3.90;99.90
24408;DHT22;12542;50.924;4.516;2023-12-07T07:42:55;3.80;99.90
24408;DHT22;12542;50.924;4.516;2023-12-07T07:45:21;3.90;99.90
24408;DHT22;12542;50.924;4.516;2023-12-07T07:47:46;3.80;99.90
24408;DHT22;12542;50.924;4.516;2023-12-07T07:50:12;4.00;99.90
24408;DHT22;12542;50.924;4.516;2023-12-07T07:52:38;4.30;99.90
24408;DHT22;12542;50.924;4.516;2023-12-07T07:55:06;4.20;99.90
24408;DHT22;12542;50.924;4.516;2023-12-07T07:57:31;4.20;99.90
24408;DHT22;12542;50.924;4.516;2023-12-07T07:59:57;4.30;99.90
24408;DHT22;12542;50.924;4.516;2023-12-07T08:02:23;4.10;99.90
24408;DHT22;12542;50.924;4.516;2023-12-07T08:04:49;4.10;99.90
24408;DHT22;12542;50.924;4.516;2023-12-07T08:07:17;3.70;99.90
24408;DHT22;12542;50.924;4.516;2023-12-07T08:09:45;3.70;99.90
24408;DHT22;12542;50.924;4.516;2023-12-07T08:12:11;3.80;99.90
24408;DHT22;12542;50.924;4.516;2023-12-07T08:14:37;4.10;99.90
24408;DHT22;12542;50.924;4.516;2023-12-07T08:17:05;4.20;99.90
24408;DHT22;12542;50.924;4.516;2023-12-07T08:19:31;4.90;99.90
24408;DHT22;12542;50.924;4.516;2023-12-07T08:21:57;5.40;99.90
24408;DHT22;12542;50.924;4.516;2023-12-07T08:24:23;5.80;99.90
24408;DHT22;12542;50.924;4.516;2023-12-07T08:26:48;6.20;99.90
24408;DHT22;12542;50.924;4.516;2023-12-07T08:29:14;6.40;99.90
24408;DHT22;12542;50.924;4.516;2023-12-07T08:31:42;6.60;99.90
24408;DHT22;12542;50.924;4.516;2023-12-07T08:34:08;6.40;99.90
24408;DHT22;12542;50.924;4.516;2023-12-07T08:36:35;6.60;99.90
24408;DHT22;12542;50.924;4.516;2023-12-07T08:39:01;7.00;99.90
24408;DHT22;12542;50.924;4.516;2023-12-07T08:41:26;7.30;99.90
24408;DHT22;12542;50.924;4.516;2023-12-07T08:43:52;7.30;99.90
24408;DHT22;12542;50.924;4.516;2023-12-07T08:46:18;7.20;99.90
24408;DHT22;12542;50.924;4.516;2023-12-07T08:48:43;7.40;99.90
24408;DHT22;12542;50.924;4.516;2023-12-07T08:51:10;7.70;99.90
24408;DHT22;12542;50.924;4.516;2023-12-07T08:53:36;8.30;99.90
24408;DHT22;12542;50.924;4.516;2023-12-07T08:56:02;8.30;99.90
24408;DHT22;12542;50.924;4.516;2023-12-07T08:58:27;8.40;99.90
24408;DHT22;12542;50.924;4.516;2023-12-07T09:00:53;8.20;99.90
24408;DHT22;12542;50.924;4.516;2023-12-07T09:03:19;7.90;99.90
24408;DHT22;12542;50.924;4.516;2023-12-07T09:05:44;7.20;99.90
24408;DHT22;12542;50.924;4.516;2023-12-07T09:08:10;6.40;99.90
24408;DHT22;12542;50.924;4.516;2023-12-07T09:10:36;6.40;99.90
24408;DHT22;12542;50.924;4.516;2023-12-07T09:13:02;6.20;99.90
24408;DHT22;12542;50.924;4.516;2023-12-07T09:15:27;6.00;99.90
24408;DHT22;12542;50.924;4.516;2023-12-07T09:17:54;5.90;99.90
24408;DHT22;12542;50.924;4.516;2023-12-07T09:20:19;5.90;99.90
24408;DHT22;12542;50.924;4.516;2023-12-07T09:22:46;5.80;99.90
24408;DHT22;12542;50.924;4.516;2023-12-07T09:25:12;5.60;99.90
24408;DHT22;12542;50.924;4.516;2023-12-07T09:27:39;5.80;99.90
24408;DHT22;12542;50.924;4.516;2023-12-07T09:30:08;5.70;99.90
24408;DHT22;12542;50.924;4.516;2023-12-07T09:32:41;5.70;99.90
24408;DHT22;12542;50.924;4.516;2023-12-07T09:35:08;5.90;99.90
24408;DHT22;12542;50.924;4.516;2023-12-07T09:37:40;6.00;99.90
24408;DHT22;12542;50.924;4.516;2023-12-07T09:40:06;5.80;99.90
24408;DHT22;12542;50.924;4.516;2023-12-07T09:42:33;5.80;99.90
24408;DHT22;12542;50.924;4.516;2023-12-07T09:44:59;5.80;99.90
24408;DHT22;12542;50.924;4.516;2023-12-07T09:47:28;6.10;99.90
24408;DHT22;12542;50.924;4.516;2023-12-07T09:49:56;6.20;99.90
24408;DHT22;12542;50.924;4.516;2023-12-07T09:52:24;6.30;99.90
24408;DHT22;12542;50.924;4.516;2023-12-07T09:54:51;6.20;99.90
24408;DHT22;12542;50.924;4.516;2023-12-07T09:57:18;6.60;99.90
24408;DHT22;12542;50.924;4.516;2023-12-07T09:59:44;6.80;99.90
24408;DHT22;12542;50.924;4.516;2023-12-07T10:02:09;6.70;99.90
24408;DHT22;12542;50.924;4.516;2023-12-07T10:04:35;7.00;99.90
24408;DHT22;12542;50.924;4.516;2023-12-07T10:07:02;7.20;99.90
24408;DHT22;12542;50.924;4.516;2023-12-07T10:09:28;7.50;99.90
24408;DHT22;12542;50.924;4.516;2023-12-07T10:12:04;7.70;99.90
24408;DHT22;12542;50.924;4.516;2023-12-07T10:14:30;7.70;99.90
24408;DHT22;12542;50.924;4.516;2023-12-07T10:16:56;7.70;99.90
24408;DHT22;12542;50.924;4.516;2023-12-07T10:19:22;7.90;99.90
24408;DHT22;12542;50.924;4.516;2023-12-07T10:21:49;8.10;99.90
24408;DHT22;12542;50.924;4.516;2023-12-07T10:24:18;7.60;99.90
24408;DHT22;12542;50.924;4.516;2023-12-07T10:26:45;7.00;99.90
24408;DHT22;12542;50.924;4.516;2023-12-07T10:29:11;7.00;99.90
24408;DHT22;12542;50.924;4.516;2023-12-07T10:31:37;7.00;99.90
24408;DHT22;12542;50.924;4.516;2023-12-07T10:34:04;7.50;99.90
24408;DHT22;12542;50.924;4.516;2023-12-07T10:36:30;7.80;99.90
24408;DHT22;12542;50.924;4.516;2023-12-07T10:38:56;7.70;99.90
24408;DHT22;12542;50.924;4.516;2023-12-07T10:41:24;7.50;99.90
24408;DHT22;12542;50.924;4.516;2023-12-07T10:43:59;7.50;99.90
24408;DHT22;12542;50.924;4.516;2023-12-07T10:46:25;7.40;99.90
24408;DHT22;12542;50.924;4.516;2023-12-07T10:48:59;7.40;99.90
24408;DHT22;12542;50.924;4.516;2023-12-07T10:53:52;7.20;99.90
24408;DHT22;12542;50.924;4.516;2023-12-07T10:56:29;7.20;99.90
24408;DHT22;12542;50.924;4.516;2023-12-07T10:58:55;7.00;99.90
24408;DHT22;12542;50.924;4.516;2023-12-07T11:01:23;7.20;99.90
24408;DHT22;12542;50.924;4.516;2023-12-07T11:03:50;7.20;99.90
24408;DHT22;12542;50.924;4.516;2023-12-07T11:06:18;7.20;99.90
24408;DHT22;12542;50.924;4.516;2023-12-07T11:08:55;6.90;99.90
24408;DHT22;12542;50.924;4.516;2023-12-07T11:11:52;6.80;99.90
24408;DHT22;12542;50.924;4.516;2023-12-07T11:14:19;6.80;99.90
24408;DHT22;12542;50.924;4.516;2023-12-07T11:16:46;6.80;99.90
24408;DHT22;12542;50.924;4.516;2023-12-07T11:22:09;6.40;99.90
24408;DHT22;12542;50.924;4.516;2023-12-07T11:24:35;6.50;99.90
24408;DHT22;12542;50.924;4.516;2023-12-07T11:27:02;6.60;99.90
24408;DHT22;12542;50.924;4.516;2023-12-07T11:29:31;6.60;99.90
24408;DHT22;12542;50.924;4.516;2023-12-07T11:32:06;6.70;99.90
24408;DHT22;12542;50.924;4.516;2023-12-07T11:34:39;6.80;99.90
24408;DHT22;12542;50.924;4.516;2023-12-07T11:37:08;7.10;99.90
24408;DHT22;12542;50.924;4.516;2023-12-07T11:39:35;6.80;99.90
24408;DHT22;12542;50.924;4.516;2023-12-07T11:42:17;6.80;99.90
24408;DHT22;12542;50.924;4.516;2023-12-07T11:44:44;6.90;99.90
24408;DHT22;12542;50.924;4.516;2023-12-07T11:47:19;7.00;99.90
24408;DHT22;12542;50.924;4.516;2023-12-07T11:49:46;6.90;99.90
24408;DHT22;12542;50.924;4.516;2023-12-07T11:52:15;7.00;99.90
24408;DHT22;12542;50.924;4.516;2023-12-07T11:54:46;6.70;99.90
24408;DHT22;12542;50.924;4.516;2023-12-07T11:57:15;6.80;99.90
24408;DHT22;12542;50.924;4.516;2023-12-07T11:59:45;6.60;99.90
24408;DHT22;12542;50.924;4.516;2023-12-07T12:02:12;6.60;99.90
24408;DHT22;12542;50.924;4.516;2023-12-07T12:04:38;6.50;99.90
24408;DHT22;12542;50.924;4.516;2023-12-07T12:07:06;6.60;99.90
24408;DHT22;12542;50.924;4.516;2023-12-07T12:09:32;6.60;99.90
24408;DHT22;12542;50.924;4.516;2023-12-07T12:12:00;6.80;99.90
24408;DHT22;12542;50.924;4.516;2023-12-07T12:14:26;6.50;99.90
24408;DHT22;12542;50.924;4.516;2023-12-07T12:16:53;6.60;99.90
24408;DHT22;12542;50.924;4.516;2023-12-07T12:19:19;6.70;99.90
24408;DHT22;12542;50.924;4.516;2023-12-07T12:21:49;6.80;99.90
24408;DHT22;12542;50.924;4.516;2023-12-07T12:24:15;6.70;99.90
24408;DHT22;12542;50.924;4.516;2023-12-07T12:26:42;6.60;99.90
24408;DHT22;12542;50.924;4.516;2023-12-07T12:29:08;6.60;99.90
24408;DHT22;12542;50.924;4.516;2023-12-07T12:31:35;6.60;99.90
24408;DHT22;12542;50.924;4.516;2023-12-07T12:34:02;6.50;99.90
24408;DHT22;12542;50.924;4.516;2023-12-07T12:36:27;6.40;99.90
24408;DHT22;12542;50.924;4.516;2023-12-07T12:38:55;6.60;99.90
24408;DHT22;12542;50.924;4.516;2023-12-07T12:41:22;6.60;99.90
24408;DHT22;12542;50.924;4.516;2023-12-07T12:43:48;6.40;99.90
24408;DHT22;12542;50.924;4.516;2023-12-07T12:46:16;6.60;99.90
24408;DHT22;12542;50.924;4.516;2023-12-07T12:48:59;6.50;99.90
24408;DHT22;12542;50.924;4.516;2023-12-07T12:51:26;6.40;99.90
24408;DHT22;12542;50.924;4.516;2023-12-07T12:53:53;6.30;99.90
24408;DHT22;12542;50.924;4.516;2023-12-07T12:56:22;6.30;99.90
24408;DHT22;12542;50.924;4.516;2023-12-07T12:58:52;6.40;99.90
24408;DHT22;12542;50.924;4.516;2023-12-07T13:01:19;6.60;99.90
24408;DHT22;12542;50.924;4.516;2023-12-07T13:03:46;6.50;99.90
24408;DHT22;12542;50.924;4.516;2023-12-07T13:06:16;6.80;99.90
24408;DHT22;12542;50.924;4.516;2023-12-07T13:08:46;6.80;99.90
24408;DHT22;12542;50.924;4.516;2023-12-07T13:11:16;6.70;99.90
24408;DHT22;12542;50.924;4.516;2023-12-07T13:13:42;6.60;99.90
24408;DHT22;12542;50.924;4.516;2023-12-07T13:16:08;6.40;99.90
24408;DHT22;12542;50.924;4.516;2023-12-07T13:18:33;6.40;99.90
24408;DHT22;12542;50.924;4.516;2023-12-07T13:20:59;6.40;99.90
24408;DHT22;12542;50.924;4.516;2023-12-07T13:23:25;6.50;99.90
24408;DHT22;12542;50.924;4.516;2023-12-07T13:25:52;6.70;99.90
24408;DHT22;12542;50.924;4.516;2023-12-07T13:28:17;6.90;99.90
24408;DHT22;12542;50.924;4.516;2023-12-07T13:30:43;6.80;99.90
24408;DHT22;12542;50.924;4.516;2023-12-07T13:33:09;6.70;99.90
24408;DHT22;12542;50.924;4.516;2023-12-07T13:35:35;7.00;99.90
24408;DHT22;12542;50.924;4.516;2023-12-07T13:38:01;6.80;99.90
24408;DHT22;12542;50.924;4.516;2023-12-07T13:40:27;6.90;99.90
24408;DHT22;12542;50.924;4.516;2023-12-07T13:42:52;6.90;99.90
24408;DHT22;12542;50.924;4.516;2023-12-07T13:45:18;6.90;99.90
24408;DHT22;12542;50.924;4.516;2023-12-07T13:47:45;6.60;99.90
24408;DHT22;12542;50.924;4.516;2023-12-07T13:50:11;6.80;99.90
24408;DHT22;12542;50.924;4.516;2023-12-07T13:52:38;6.70;99.90
24408;DHT22;12542;50.924;4.516;2023-12-07T13:55:04;6.70;99.90
24408;DHT22;12542;50.924;4.516;2023-12-07T13:57:30;6.80;99.90
24408;DHT22;12542;50.924;4.516;2023-12-07T13:59:56;6.70;99.90
24408;DHT22;12542;50.924;4.516;2023-12-07T14:02:22;6.70;99.90
24408;DHT22;12542;50.924;4.516;2023-12-07T14:04:49;6.60;99.90
24408;DHT22;12542;50.924;4.516;2023-12-07T14:07:21;6.60;99.90
24408;DHT22;12542;50.924;4.516;2023-12-07T14:09:50;6.50;99.90
24408;DHT22;12542;50.924;4.516;2023-12-07T14:12:16;6.70;99.90
24408;DHT22;12542;50.924;4.516;2023-12-07T14:14:44;6.70;99.90
24408;DHT22;12542;50.924;4.516;2023-12-07T14:17:11;6.70;99.90
24408;DHT22;12542;50.924;4.516;2023-12-07T14:19:36;6.70;99.90
24408;DHT22;12542;50.924;4.516;2023-12-07T14:22:03;6.50;99.90
24408;DHT22;12542;50.924;4.516;2023-12-07T14:24:29;6.40;99.90
24408;DHT22;12542;50.924;4.516;2023-12-07T14:26:56;6.50;99.90
24408;DHT22;12542;50.924;4.516;2023-12-07T14:29:23;6.60;99.90
24408;DHT22;12542;50.924;4.516;2023-12-07T14:31:51;6.60;99.90
24408;DHT22;12542;50.924;4.516;2023-12-07T14:34:19;6.70;99.90
24408;DHT22;12542;50.924;4.516;2023-12-07T14:36:45;6.70;99.90
24408;DHT22;12542;50.924;4.516;2023-12-07T14:39:11;6.60;99.90
24408;DHT22;12542;50.924;4.516;2023-12-07T14:41:46;6.60;99.90
24408;DHT22;12542;50.924;4.516;2023-12-07T14:44:16;6.70;99.90
24408;DHT22;12542;50.924;4.516;2023-12-07T14:46:45;6.50;99.90
24408;DHT22;12542;50.924;4.516;2023-12-07T14:49:15;6.40;99.90
24408;DHT22;12542;50.924;4.516;2023-12-07T14:51:44;6.30;99.90
24408;DHT22;12542;50.924;4.516;2023-12-07T14:54:10;6.30;99.90
24408;DHT22;12542;50.924;4.516;2023-12-07T14:56:39;6.20;99.90
24408;DHT22;12542;50.924;4.516;2023-12-07T14:59:07;6.10;99.90
24408;DHT22;12542;50.924;4.516;2023-12-07T15:01:44;5.80;99.90
24408;DHT22;12542;50.924;4.516;2023-12-07T15:04:10;5.80;99.90
24408;DHT22;12542;50.924;4.516;2023-12-07T15:06:36;5.70;99.90
24408;DHT22;12542;50.924;4.516;2023-12-07T15:09:01;5.50;99.90
24408;DHT22;12542;50.924;4.516;2023-12-07T15:11:35;5.50;99.90
24408;DHT22;12542;50.924;4.516;2023-12-07T15:14:02;5.30;99.90
24408;DHT22;12542;50.924;4.516;2023-12-07T15:16:28;5.40;99.90
24408;DHT22;12542;50.924;4.516;2023-12-07T15:18:54;5.40;99.90
24408;DHT22;12542;50.924;4.516;2023-12-07T15:21:20;5.50;99.90
24408;DHT22;12542;50.924;4.516;2023-12-07T15:23:46;5.50;99.90
24408;DHT22;12542;50.924;4.516;2023-12-07T15:26:12;5.50;99.90
24408;DHT22;12542;50.924;4.516;2023-12-07T15:28:39;5.40;99.90
24408;DHT22;12542;50.924;4.516;2023-12-07T15:31:08;5.40;99.90
24408;DHT22;12542;50.924;4.516;2023-12-07T15:33:34;5.30;99.90
24408;DHT22;12542;50.924;4.516;2023-12-07T15:36:03;5.30;99.90
24408;DHT22;12542;50.924;4.516;2023-12-07T15:38:32;5.50;99.90
24408;DHT22;12542;50.924;4.516;2023-12-07T15:40:58;5.60;99.90
24408;DHT22;12542;50.924;4.516;2023-12-07T15:43:28;5.60;99.90
24408;DHT22;12542;50.924;4.516;2023-12-07T15:45:56;5.60;99.90
24408;DHT22;12542;50.924;4.516;2023-12-07T15:48:22;5.60;99.90